sensor_id;sensor_type;location;lat;lon;timestamp;P1;durP1;ratioP1;P2;durP2;ratioP2
44384;SDS011;30101;32.778;34.994;2023-01-01T00:03:03;19.35;;;11.13;;
44384;SDS011;30101;32.778;34.994;2023-01-01T00:08:07;16.90;;;11.00;;
44384;SDS011;30101;32.778;34.994;2023-01-01T00:13:13;19.10;;;11.13;;
44384;SDS011;30101;32.778;34.994;2023-01-01T00:18:17;16.63;;;10.52;;
44384;SDS011;30101;32.778;34.994;2023-01-01T00:23:21;18.15;;;10.43;;
44384;SDS011;30101;32.778;34.994;2023-01-01T00:28:25;23.10;;;11.48;;
44384;SDS011;30101;32.778;34.994;2023-01-01T00:33:29;24.20;;;11.25;;
44384;SDS011;30101;32.778;34.994;2023-01-01T00:38:33;26.63;;;11.75;;
44384;SDS011;30101;32.778;34.994;2023-01-01T00:43:37;17.90;;;10.38;;
44384;SDS011;30101;32.778;34.994;2023-01-01T00:48:40;19.88;;;11.52;;
44384;SDS011;30101;32.778;34.994;2023-01-01T00:53:45;20.75;;;11.27;;
44384;SDS011;30101;32.778;34.994;2023-01-01T00:58:51;16.60;;;10.45;;
44384;SDS011;30101;32.778;34.994;2023-01-01T01:04:03;20.17;;;10.70;;
44384;SDS011;30101;32.778;34.994;2023-01-01T01:09:07;19.27;;;10.75;;
44384;SDS011;30101;32.778;34.994;2023-01-01T01:19:14;19.10;;;10.80;;
44384;SDS011;30101;32.778;34.994;2023-01-01T01:24:17;17.88;;;11.02;;
44384;SDS011;30101;32.778;34.994;2023-01-01T01:29:22;17.98;;;10.63;;
44384;SDS011;30101;32.778;34.994;2023-01-01T01:34:27;18.80;;;11.07;;
44384;SDS011;30101;32.778;34.994;2023-01-01T01:44:54;21.70;;;11.05;;
44384;SDS011;30101;32.778;34.994;2023-01-01T01:50:03;18.75;;;11.98;;
44384;SDS011;30101;32.778;34.994;2023-01-01T01:55:10;19.80;;;10.93;;
44384;SDS011;30101;32.778;34.994;2023-01-01T02:00:15;19.42;;;10.93;;
44384;SDS011;30101;32.778;34.994;2023-01-01T02:05:19;19.02;;;11.35;;
44384;SDS011;30101;32.778;34.994;2023-01-01T02:10:25;19.65;;;12.07;;
44384;SDS011;30101;32.778;34.994;2023-01-01T02:15:30;20.88;;;12.10;;
44384;SDS011;30101;32.778;34.994;2023-01-01T02:31:09;20.55;;;11.43;;
44384;SDS011;30101;32.778;34.994;2023-01-01T02:36:24;19.15;;;11.73;;
44384;SDS011;30101;32.778;34.994;2023-01-01T02:41:35;22.00;;;11.43;;
44384;SDS011;30101;32.778;34.994;2023-01-01T02:46:46;20.38;;;12.43;;
44384;SDS011;30101;32.778;34.994;2023-01-01T03:08:01;20.15;;;10.77;;
44384;SDS011;30101;32.778;34.994;2023-01-01T03:23:51;25.10;;;11.10;;
44384;SDS011;30101;32.778;34.994;2023-01-01T03:28:56;19.38;;;11.40;;
44384;SDS011;30101;32.778;34.994;2023-01-01T03:34:04;20.00;;;11.57;;
44384;SDS011;30101;32.778;34.994;2023-01-01T03:39:14;18.38;;;10.93;;
44384;SDS011;30101;32.778;34.994;2023-01-01T03:49:46;18.30;;;11.63;;
44384;SDS011;30101;32.778;34.994;2023-01-01T04:00:15;20.40;;;11.43;;
44384;SDS011;30101;32.778;34.994;2023-01-01T04:05:21;20.05;;;11.07;;
44384;SDS011;30101;32.778;34.994;2023-01-01T04:10:28;23.58;;;11.57;;
44384;SDS011;30101;32.778;34.994;2023-01-01T04:15:34;22.85;;;11.68;;
44384;SDS011;30101;32.778;34.994;2023-01-01T04:20:38;20.83;;;12.45;;
44384;SDS011;30101;32.778;34.994;2023-01-01T04:25:41;17.88;;;11.38;;
44384;SDS011;30101;32.778;34.994;2023-01-01T04:30:46;22.15;;;12.93;;
44384;SDS011;30101;32.778;34.994;2023-01-01T04:35:50;17.40;;;11.75;;
44384;SDS011;30101;32.778;34.994;2023-01-01T04:40:57;21.63;;;11.90;;
44384;SDS011;30101;32.778;34.994;2023-01-01T04:46:03;25.80;;;12.93;;
44384;SDS011;30101;32.778;34.994;2023-01-01T04:51:08;19.73;;;12.20;;
44384;SDS011;30101;32.778;34.994;2023-01-01T04:56:18;22.60;;;12.57;;
44384;SDS011;30101;32.778;34.994;2023-01-01T05:01:24;20.75;;;11.88;;
44384;SDS011;30101;32.778;34.994;2023-01-01T05:06:29;27.50;;;12.57;;
44384;SDS011;30101;32.778;34.994;2023-01-01T05:11:33;25.95;;;13.50;;
44384;SDS011;30101;32.778;34.994;2023-01-01T05:16:38;22.27;;;11.88;;
44384;SDS011;30101;32.778;34.994;2023-01-01T05:21:42;31.15;;;12.55;;
44384;SDS011;30101;32.778;34.994;2023-01-01T05:26:45;28.23;;;13.25;;
44384;SDS011;30101;32.778;34.994;2023-01-01T05:31:50;21.88;;;11.32;;
44384;SDS011;30101;32.778;34.994;2023-01-01T05:36:54;26.23;;;13.27;;
44384;SDS011;30101;32.778;34.994;2023-01-01T05:41:57;23.55;;;13.52;;
44384;SDS011;30101;32.778;34.994;2023-01-01T05:47:01;24.45;;;12.75;;
44384;SDS011;30101;32.778;34.994;2023-01-01T05:52:04;23.33;;;12.55;;
44384;SDS011;30101;32.778;34.994;2023-01-01T05:57:08;27.05;;;13.00;;
44384;SDS011;30101;32.778;34.994;2023-01-01T06:02:11;26.75;;;12.52;;
44384;SDS011;30101;32.778;34.994;2023-01-01T06:07:15;25.15;;;13.52;;
44384;SDS011;30101;32.778;34.994;2023-01-01T06:17:24;28.48;;;12.80;;
44384;SDS011;30101;32.778;34.994;2023-01-01T06:22:28;21.17;;;12.50;;
44384;SDS011;30101;32.778;34.994;2023-01-01T06:27:33;26.10;;;12.70;;
44384;SDS011;30101;32.778;34.994;2023-01-01T06:32:37;23.23;;;12.60;;
44384;SDS011;30101;32.778;34.994;2023-01-01T06:37:42;21.65;;;12.80;;
44384;SDS011;30101;32.778;34.994;2023-01-01T06:42:45;23.38;;;12.85;;
44384;SDS011;30101;32.778;34.994;2023-01-01T06:47:49;20.85;;;12.95;;
44384;SDS011;30101;32.778;34.994;2023-01-01T07:08:02;34.75;;;12.75;;
44384;SDS011;30101;32.778;34.994;2023-01-01T07:18:12;24.38;;;12.55;;
44384;SDS011;30101;32.778;34.994;2023-01-01T07:23:15;23.88;;;12.60;;
44384;SDS011;30101;32.778;34.994;2023-01-01T07:28:19;28.25;;;14.77;;
44384;SDS011;30101;32.778;34.994;2023-01-01T07:33:24;30.08;;;11.60;;
44384;SDS011;30101;32.778;34.994;2023-01-01T07:38:28;24.25;;;12.18;;
44384;SDS011;30101;32.778;34.994;2023-01-01T07:43:31;23.05;;;11.40;;
44384;SDS011;30101;32.778;34.994;2023-01-01T07:48:35;22.90;;;12.50;;
44384;SDS011;30101;32.778;34.994;2023-01-01T07:53:42;28.73;;;12.18;;
44384;SDS011;30101;32.778;34.994;2023-01-01T07:58:45;27.33;;;11.50;;
44384;SDS011;30101;32.778;34.994;2023-01-01T08:03:50;20.33;;;12.35;;
44384;SDS011;30101;32.778;34.994;2023-01-01T08:08:55;23.40;;;10.93;;
44384;SDS011;30101;32.778;34.994;2023-01-01T08:13:59;22.73;;;13.25;;
44384;SDS011;30101;32.778;34.994;2023-01-01T08:19:03;32.92;;;13.10;;
44384;SDS011;30101;32.778;34.994;2023-01-01T08:24:07;26.58;;;12.50;;
44384;SDS011;30101;32.778;34.994;2023-01-01T08:29:11;24.80;;;13.32;;
44384;SDS011;30101;32.778;34.994;2023-01-01T08:34:15;24.42;;;12.75;;
44384;SDS011;30101;32.778;34.994;2023-01-01T08:39:18;21.92;;;12.63;;
44384;SDS011;30101;32.778;34.994;2023-01-01T08:44:22;21.35;;;12.43;;
44384;SDS011;30101;32.778;34.994;2023-01-01T08:49:25;29.25;;;14.02;;
44384;SDS011;30101;32.778;34.994;2023-01-01T08:54:29;27.15;;;12.90;;
44384;SDS011;30101;32.778;34.994;2023-01-01T08:59:32;27.05;;;13.20;;
44384;SDS011;30101;32.778;34.994;2023-01-01T09:04:36;23.58;;;12.80;;
44384;SDS011;30101;32.778;34.994;2023-01-01T09:09:39;27.67;;;13.40;;
44384;SDS011;30101;32.778;34.994;2023-01-01T09:14:48;21.38;;;11.98;;
44384;SDS011;30101;32.778;34.994;2023-01-01T09:19:51;23.67;;;12.65;;
44384;SDS011;30101;32.778;34.994;2023-01-01T09:35:01;19.88;;;12.13;;
44384;SDS011;30101;32.778;34.994;2023-01-01T09:40:05;22.25;;;13.98;;
44384;SDS011;30101;32.778;34.994;2023-01-01T09:45:28;27.88;;;13.93;;
44384;SDS011;30101;32.778;34.994;2023-01-01T09:50:51;26.30;;;13.07;;
44384;SDS011;30101;32.778;34.994;2023-01-01T09:55:56;22.67;;;12.15;;
44384;SDS011;30101;32.778;34.994;2023-01-01T10:01:16;22.98;;;12.10;;
44384;SDS011;30101;32.778;34.994;2023-01-01T10:16:55;25.58;;;13.50;;
44384;SDS011;30101;32.778;34.994;2023-01-01T10:22:08;25.75;;;12.55;;
44384;SDS011;30101;32.778;34.994;2023-01-01T10:27:39;21.95;;;12.18;;
44384;SDS011;30101;32.778;34.994;2023-01-01T10:32:54;20.23;;;12.82;;
44384;SDS011;30101;32.778;34.994;2023-01-01T10:37:58;26.25;;;12.27;;
44384;SDS011;30101;32.778;34.994;2023-01-01T10:43:05;21.95;;;12.23;;
44384;SDS011;30101;32.778;34.994;2023-01-01T10:48:14;19.92;;;11.23;;
44384;SDS011;30101;32.778;34.994;2023-01-01T10:53:31;23.27;;;12.82;;
44384;SDS011;30101;32.778;34.994;2023-01-01T11:19:35;25.65;;;10.75;;
44384;SDS011;30101;32.778;34.994;2023-01-01T11:24:40;27.65;;;11.10;;
44384;SDS011;30101;32.778;34.994;2023-01-01T11:35:44;25.48;;;10.35;;
44384;SDS011;30101;32.778;34.994;2023-01-01T11:40:55;21.75;;;9.57;;
44384;SDS011;30101;32.778;34.994;2023-01-01T11:46:06;16.00;;;9.55;;
44384;SDS011;30101;32.778;34.994;2023-01-01T11:51:26;22.60;;;8.80;;
44384;SDS011;30101;32.778;34.994;2023-01-01T11:56:34;17.55;;;7.78;;
44384;SDS011;30101;32.778;34.994;2023-01-01T12:06:46;19.10;;;8.90;;
44384;SDS011;30101;32.778;34.994;2023-01-01T12:12:03;23.10;;;9.25;;
44384;SDS011;30101;32.778;34.994;2023-01-01T12:22:39;18.98;;;8.77;;
44384;SDS011;30101;32.778;34.994;2023-01-01T12:27:55;22.83;;;9.13;;
44384;SDS011;30101;32.778;34.994;2023-01-01T12:44:02;20.97;;;9.87;;
44384;SDS011;30101;32.778;34.994;2023-01-01T12:49:29;17.88;;;9.52;;
44384;SDS011;30101;32.778;34.994;2023-01-01T12:54:55;16.38;;;8.82;;
44384;SDS011;30101;32.778;34.994;2023-01-01T13:00:24;23.42;;;9.68;;
44384;SDS011;30101;32.778;34.994;2023-01-01T13:05:35;18.77;;;10.02;;
44384;SDS011;30101;32.778;34.994;2023-01-01T13:10:44;16.38;;;9.02;;
44384;SDS011;30101;32.778;34.994;2023-01-01T13:15:54;14.93;;;9.23;;
44384;SDS011;30101;32.778;34.994;2023-01-01T13:21:17;15.75;;;7.88;;
44384;SDS011;30101;32.778;34.994;2023-01-01T13:32:17;19.63;;;9.40;;
44384;SDS011;30101;32.778;34.994;2023-01-01T13:54:02;17.60;;;8.70;;
44384;SDS011;30101;32.778;34.994;2023-01-01T14:04:40;16.38;;;9.25;;
44384;SDS011;30101;32.778;34.994;2023-01-01T14:09:45;16.38;;;8.80;;
44384;SDS011;30101;32.778;34.994;2023-01-01T14:14:49;16.38;;;8.23;;
44384;SDS011;30101;32.778;34.994;2023-01-01T14:19:53;15.52;;;7.38;;
44384;SDS011;30101;32.778;34.994;2023-01-01T14:24:58;16.02;;;9.73;;
44384;SDS011;30101;32.778;34.994;2023-01-01T14:30:14;10.40;;;7.37;;
44384;SDS011;30101;32.778;34.994;2023-01-01T14:35:19;12.20;;;7.78;;
44384;SDS011;30101;32.778;34.994;2023-01-01T14:40:26;22.00;;;10.40;;
44384;SDS011;30101;32.778;34.994;2023-01-01T14:45:30;13.95;;;8.23;;
44384;SDS011;30101;32.778;34.994;2023-01-01T14:50:38;15.07;;;8.65;;
44384;SDS011;30101;32.778;34.994;2023-01-01T14:55:42;16.02;;;8.63;;
44384;SDS011;30101;32.778;34.994;2023-01-01T15:00:48;14.90;;;8.60;;
44384;SDS011;30101;32.778;34.994;2023-01-01T15:05:57;14.18;;;8.40;;
44384;SDS011;30101;32.778;34.994;2023-01-01T15:11:11;11.27;;;7.05;;
44384;SDS011;30101;32.778;34.994;2023-01-01T15:16:16;14.25;;;8.30;;
44384;SDS011;30101;32.778;34.994;2023-01-01T15:26:39;12.77;;;7.93;;
44384;SDS011;30101;32.778;34.994;2023-01-01T15:37:18;14.38;;;8.10;;
44384;SDS011;30101;32.778;34.994;2023-01-01T15:42:32;14.27;;;8.48;;
44384;SDS011;30101;32.778;34.994;2023-01-01T15:47:37;15.80;;;8.48;;
44384;SDS011;30101;32.778;34.994;2023-01-01T15:52:41;13.70;;;8.25;;
44384;SDS011;30101;32.778;34.994;2023-01-01T15:57:54;12.75;;;7.53;;
44384;SDS011;30101;32.778;34.994;2023-01-01T16:03:00;20.52;;;9.05;;
44384;SDS011;30101;32.778;34.994;2023-01-01T16:08:13;14.15;;;8.27;;
44384;SDS011;30101;32.778;34.994;2023-01-01T16:13:17;14.93;;;7.90;;
44384;SDS011;30101;32.778;34.994;2023-01-01T16:18:22;14.05;;;7.97;;
44384;SDS011;30101;32.778;34.994;2023-01-01T16:23:30;12.23;;;7.28;;
44384;SDS011;30101;32.778;34.994;2023-01-01T16:28:34;11.82;;;7.50;;
44384;SDS011;30101;32.778;34.994;2023-01-01T16:33:37;11.55;;;7.50;;
44384;SDS011;30101;32.778;34.994;2023-01-01T16:38:41;13.63;;;8.27;;
44384;SDS011;30101;32.778;34.994;2023-01-01T16:43:45;18.17;;;8.38;;
44384;SDS011;30101;32.778;34.994;2023-01-01T16:48:52;12.00;;;7.70;;
44384;SDS011;30101;32.778;34.994;2023-01-01T16:53:58;14.27;;;7.07;;
44384;SDS011;30101;32.778;34.994;2023-01-01T16:59:02;13.38;;;6.88;;
44384;SDS011;30101;32.778;34.994;2023-01-01T17:04:08;12.35;;;6.65;;
44384;SDS011;30101;32.778;34.994;2023-01-01T17:09:12;12.38;;;7.05;;
44384;SDS011;30101;32.778;34.994;2023-01-01T17:14:16;13.35;;;7.28;;
44384;SDS011;30101;32.778;34.994;2023-01-01T17:19:19;14.07;;;7.72;;
44384;SDS011;30101;32.778;34.994;2023-01-01T17:24:23;18.95;;;7.65;;
44384;SDS011;30101;32.778;34.994;2023-01-01T17:29:27;13.77;;;8.23;;
44384;SDS011;30101;32.778;34.994;2023-01-01T17:34:30;15.35;;;8.30;;
44384;SDS011;30101;32.778;34.994;2023-01-01T17:39:34;16.05;;;7.43;;
44384;SDS011;30101;32.778;34.994;2023-01-01T17:44:42;10.30;;;7.15;;
44384;SDS011;30101;32.778;34.994;2023-01-01T17:49:46;21.17;;;9.27;;
44384;SDS011;30101;32.778;34.994;2023-01-01T17:54:52;15.30;;;6.72;;
44384;SDS011;30101;32.778;34.994;2023-01-01T17:59:56;19.45;;;8.30;;
44384;SDS011;30101;32.778;34.994;2023-01-01T18:05:01;13.13;;;8.05;;
44384;SDS011;30101;32.778;34.994;2023-01-01T18:10:05;12.02;;;7.35;;
44384;SDS011;30101;32.778;34.994;2023-01-01T18:15:09;13.85;;;8.50;;
44384;SDS011;30101;32.778;34.994;2023-01-01T18:20:13;12.45;;;7.55;;
44384;SDS011;30101;32.778;34.994;2023-01-01T18:25:18;13.80;;;8.35;;
44384;SDS011;30101;32.778;34.994;2023-01-01T18:30:23;15.20;;;7.78;;
44384;SDS011;30101;32.778;34.994;2023-01-01T18:35:27;16.48;;;8.00;;
